Time;durP1;ratioP1;P1;durP2;ratioP2;P2;SDS_P1;SDS_P2;PMS_P1;PMS_P2;Temp;Humidity;BMP_temperature;BMP_pressure;BME280_temperature;BME280_humidity;BME280_pressure;Samples;Min_cycle;Max_cycle;Signal;HPM_P1;HPM_P2
2021/09/11 00:00:25;;;;;;;11.27;7.43;;;17.60;99.90;;;;;;6186562;23;20083;-91
2021/09/11 00:03:13;;;;;;;12.00;8.75;;;17.60;99.90;;;;;;6188562;23;20332;-92
2021/09/11 00:06:00;;;;;;;9.60;8.23;;;17.70;99.90;;;;;;6188072;23;20099;-89
2021/09/11 00:08:47;;;;;;;12.02;8.73;;;17.60;99.90;;;;;;6146709;23;20050;-90
2021/09/11 00:11:34;;;;;;;11.45;9.68;;;17.60;99.90;;;;;;6188995;23;20429;-91
2021/09/11 00:14:21;;;;;;;10.90;9.40;;;17.50;99.90;;;;;;6188075;23;20340;-92
2021/09/11 00:17:09;;;;;;;11.68;10.00;;;17.40;99.90;;;;;;6187999;23;20155;-89
2021/09/11 00:19:59;;;;;;;13.88;10.98;;;17.20;99.90;;;;;;6186624;23;20068;-89
2021/09/11 00:22:48;;;;;;;12.55;10.60;;;16.90;99.90;;;;;;6186275;23;20025;-93
2021/09/11 00:25:36;;;;;;;11.73;10.32;;;16.80;99.90;;;;;;6186378;23;20389;-89
2021/09/11 00:28:23;;;;;;;13.90;12.20;;;16.60;99.90;;;;;;6188283;23;20063;-88
2021/09/11 00:31:10;;;;;;;14.65;13.10;;;16.60;99.90;;;;;;6157495;23;20029;-91
2021/09/11 00:33:58;;;;;;;14.20;12.70;;;16.40;99.90;;;;;;6200862;23;20048;-90
2021/09/11 00:36:46;;;;;;;15.90;14.27;;;16.40;99.90;;;;;;6191170;23;20113;-89
2021/09/11 00:39:33;;;;;;;16.13;13.45;;;16.30;99.90;;;;;;6187780;23;20025;-92
2021/09/11 00:42:21;;;;;;;15.80;14.10;;;16.30;99.90;;;;;;6199103;23;20061;-92
2021/09/11 00:45:08;;;;;;;16.35;13.57;;;16.20;99.90;;;;;;6181294;23;20076;-90
2021/09/11 00:47:57;;;;;;;15.40;13.50;;;16.20;99.90;;;;;;6203065;23;20035;-92
2021/09/11 00:50:48;;;;;;;15.35;13.75;;;16.20;99.90;;;;;;6211337;23;20021;-91
2021/09/11 00:53:38;;;;;;;16.20;14.57;;;16.20;99.90;;;;;;6208562;23;20020;-89
2021/09/11 00:56:27;;;;;;;17.73;14.77;;;16.20;99.90;;;;;;6210974;23;20017;-88
2021/09/11 00:59:15;;;;;;;16.27;14.55;;;16.10;99.90;;;;;;6210503;23;20060;-90
2021/09/11 01:02:03;;;;;;;16.25;13.90;;;16.10;99.90;;;;;;6209106;23;20091;-89
2021/09/11 01:04:52;;;;;;;17.08;14.55;;;16.10;99.90;;;;;;6191360;23;20013;-90
2021/09/11 01:07:42;;;;;;;16.55;14.82;;;16.10;99.90;;;;;;6206129;23;20025;-89
2021/09/11 01:10:31;;;;;;;17.98;14.80;;;16.10;99.90;;;;;;6204707;23;20029;-89
2021/09/11 01:13:19;;;;;;;19.58;14.52;;;16.10;99.90;;;;;;6198084;23;20029;-89
2021/09/11 01:16:12;;;;;;;18.35;14.95;;;16.10;99.90;;;;;;6174890;23;20048;-91
2021/09/11 01:19:01;;;;;;;16.05;13.65;;;16.20;99.90;;;;;;6201495;23;20061;-90
2021/09/11 01:21:50;;;;;;;16.02;14.35;;;16.20;99.90;;;;;;6194444;23;20021;-89
2021/09/11 01:25:10;;;;;;;15.80;13.93;;;16.20;99.90;;;;;;6190545;23;20025;-91
2021/09/11 01:27:59;;;;;;;15.82;14.23;;;16.20;99.90;;;;;;6195178;23;20056;-92
2021/09/11 01:30:47;;;;;;;17.63;14.90;;;16.20;99.90;;;;;;6196103;23;20096;-92
2021/09/11 01:33:34;;;;;;;16.08;13.57;;;16.10;99.90;;;;;;6197478;23;20029;-90
2021/09/11 01:36:21;;;;;;;17.13;13.48;;;16.10;99.90;;;;;;6168522;23;20029;-90
2021/09/11 01:39:11;;;;;;;15.00;13.05;;;16.10;99.90;;;;;;6187954;23;20116;-88
2021/09/11 01:41:59;;;;;;;14.90;13.40;;;16.10;99.90;;;;;;6188013;23;20028;-90
2021/09/11 01:45:01;;;;;;;14.65;13.15;;;16.10;99.90;;;;;;6187164;23;20025;-91
2021/09/11 01:47:52;;;;;;;;;;;16.10;99.90;;;;;;6201203;23;20020;-92
2021/09/11 01:50:43;;;;;;;16.65;13.48;;;16.10;99.90;;;;;;6200835;23;19916;-92
2021/09/11 01:53:30;;;;;;;13.90;12.50;;;16.10;99.90;;;;;;6187769;23;20088;-89
2021/09/11 01:56:18;;;;;;;14.25;12.38;;;16.10;99.90;;;;;;6186882;23;20029;-90
2021/09/11 01:59:07;;;;;;;14.45;12.88;;;16.10;99.90;;;;;;6166969;23;20773;-90
2021/09/11 02:01:56;;;;;;;14.88;12.35;;;16.10;99.90;;;;;;6186923;23;20057;-91
2021/09/11 02:04:44;;;;;;;13.55;11.98;;;16.10;99.90;;;;;;6165485;23;20032;-91
2021/09/11 02:07:32;;;;;;;12.38;10.75;;;16.10;99.90;;;;;;6188239;23;20049;-92
2021/09/11 02:10:19;;;;;;;12.88;11.38;;;16.10;99.90;;;;;;6187654;23;20057;-91
2021/09/11 02:13:07;;;;;;;11.75;10.18;;;16.10;99.90;;;;;;6165398;23;20324;-92
2021/09/11 02:16:01;;;;;;;12.27;10.02;;;16.10;99.90;;;;;;6167262;23;20290;-89
2021/09/11 02:18:50;;;;;;;10.98;9.88;;;16.10;99.90;;;;;;6166503;23;20029;-91
2021/09/11 02:21:38;;;;;;;11.00;9.65;;;16.10;99.90;;;;;;6186617;23;20053;-92
2021/09/11 02:24:29;;;;;;;10.43;8.73;;;16.10;99.90;;;;;;6187178;23;20305;-90
2021/09/11 02:27:24;;;;;;;10.25;9.13;;;16.10;99.90;;;;;;6168205;23;20029;-91
2021/09/11 02:30:11;;;;;;;13.23;9.30;;;16.20;99.90;;;;;;6185339;23;20106;-91
2021/09/11 02:32:58;;;;;;;10.15;8.98;;;16.20;99.90;;;;;;6187615;23;20429;-90
2021/09/11 02:35:46;;;;;;;13.30;8.57;;;16.20;99.90;;;;;;6187395;23;20033;-91
2021/09/11 02:38:36;;;;;;;8.82;7.88;;;16.20;99.90;;;;;;6166862;23;20029;-92
2021/09/11 02:41:24;;;;;;;8.85;7.38;;;16.20;99.90;;;;;;6187011;23;20175;-91
2021/09/11 02:44:11;;;;;;;8.45;7.55;;;16.20;99.90;;;;;;6166301;23;20025;-91
2021/09/11 02:47:02;;;;;;;9.60;7.55;;;16.20;99.90;;;;;;6188524;23;20337;-92
2021/09/11 02:49:51;;;;;;;7.78;7.00;;;16.20;99.90;;;;;;6166833;23;20167;-91
2021/09/11 02:52:38;;;;;;;7.82;7.07;;;16.30;99.90;;;;;;6188317;23;20025;-91
2021/09/11 02:55:26;;;;;;;7.93;7.13;;;16.20;99.90;;;;;;6163071;23;20160;-92
2021/09/11 02:58:17;;;;;;;8.05;7.25;;;16.20;99.90;;;;;;6165250;23;20325;-88
2021/09/11 03:01:04;;;;;;;9.60;7.47;;;16.30;99.90;;;;;;6192158;23;20107;-91
2021/09/11 03:03:52;;;;;;;7.80;6.93;;;16.20;99.90;;;;;;6173721;23;20036;-90
2021/09/11 03:06:39;;;;;;;7.88;6.75;;;16.20;99.90;;;;;;6200908;23;20080;-92
2021/09/11 03:09:29;;;;;;;10.65;6.68;;;16.30;99.90;;;;;;6195529;23;20068;-92
2021/09/11 03:12:17;;;;;;;7.32;5.80;;;16.30;99.90;;;;;;6175529;23;20028;-93
2021/09/11 03:15:07;;;;;;;6.75;5.82;;;16.20;99.90;;;;;;6201803;23;20029;-92
2021/09/11 03:17:54;;;;;;;6.57;5.70;;;16.30;99.90;;;;;;6199268;23;20076;-91
2021/09/11 03:20:46;;;;;;;7.30;5.93;;;16.30;99.90;;;;;;6168516;23;20025;-92
2021/09/11 03:23:33;;;;;;;7.45;6.47;;;16.30;99.90;;;;;;6187418;23;20079;-92
2021/09/11 03:26:20;;;;;;;6.63;5.80;;;16.30;99.90;;;;;;6187603;23;20049;-90
2021/09/11 03:29:08;;;;;;;7.93;5.80;;;16.30;99.90;;;;;;6185139;23;20025;-92
2021/09/11 03:31:55;;;;;;;7.20;6.10;;;16.20;99.90;;;;;;6163411;23;20067;-92
2021/09/11 03:34:42;;;;;;;7.90;7.10;;;16.20;99.90;;;;;;6187321;23;20375;-92
2021/09/11 03:37:30;;;;;;;9.23;8.20;;;16.10;99.90;;;;;;6165707;23;20052;-92
2021/09/11 03:40:20;;;;;;;9.90;8.20;;;15.90;99.90;;;;;;6187219;23;20063;-90
2021/09/11 03:43:07;;;;;;;11.05;8.65;;;15.80;99.90;;;;;;6186282;23;20413;-91
2021/09/11 03:45:54;;;;;;;10.43;8.52;;;15.70;99.90;;;;;;6167223;23;20107;-90
2021/09/11 03:48:42;;;;;;;9.73;8.73;;;15.70;99.90;;;;;;6187518;23;20028;-90
2021/09/11 03:51:34;;;;;;;10.65;8.50;;;15.70;99.90;;;;;;6186512;23;20427;-91
2021/09/11 03:54:21;;;;;;;9.70;8.70;;;15.60;99.90;;;;;;6166042;23;20105;-89
2021/09/11 03:57:16;;;;;;;11.70;8.55;;;15.60;99.90;;;;;;6198209;23;20033;-90
2021/09/11 04:00:04;;;;;;;10.32;8.48;;;15.60;99.90;;;;;;6203180;23;20029;-90
2021/09/11 04:02:51;;;;;;;11.73;9.68;;;15.70;99.90;;;;;;6191525;23;20025;-90
2021/09/11 04:05:45;;;;;;;10.65;8.73;;;15.60;99.90;;;;;;6186832;23;20025;-90
2021/09/11 04:08:33;;;;;;;11.48;8.85;;;15.60;99.90;;;;;;6145827;23;20304;-90
2021/09/11 04:11:35;;;;;;;11.15;8.63;;;15.60;99.90;;;;;;6165055;23;20028;-93
2021/09/11 04:14:28;;;;;;;10.65;8.95;;;15.60;99.90;;;;;;6166698;23;20028;-92
2021/09/11 04:17:17;;;;;;;12.73;8.85;;;15.60;99.90;;;;;;6186390;23;20040;-90
2021/09/11 04:20:07;;;;;;;9.25;8.35;;;15.70;99.90;;;;;;6187364;23;20111;-91
2021/09/11 04:22:54;;;;;;;10.02;8.43;;;15.70;99.90;;;;;;6187760;23;20054;-90
2021/09/11 04:25:45;;;;;;;9.52;8.18;;;15.70;99.90;;;;;;6167864;23;20106;-91
2021/09/11 04:28:33;;;;;;;9.82;8.77;;;15.70;99.90;;;;;;6189801;23;20052;-91
2021/09/11 04:31:27;;;;;;;10.55;8.77;;;15.70;99.90;;;;;;6168664;23;20138;-89
2021/09/11 04:34:19;;;;;;;9.93;8.85;;;15.70;99.90;;;;;;6191070;23;20388;-89
2021/09/11 04:37:08;;;;;;;11.57;10.23;;;15.60;99.90;;;;;;6167367;23;20029;-91
2021/09/11 04:39:56;;;;;;;12.00;10.50;;;15.60;99.90;;;;;;6166572;23;20025;-90
2021/09/11 04:42:47;;;;;;;11.85;9.98;;;15.60;99.90;;;;;;6188135;23;20044;-91
2021/09/11 04:45:35;;;;;;;12.07;9.98;;;15.60;99.90;;;;;;6167573;23;20053;-90
2021/09/11 04:48:35;;;;;;;12.45;10.02;;;15.60;99.90;;;;;;6187693;23;20037;-91
2021/09/11 04:51:38;;;;;;;13.15;10.10;;;15.60;99.90;;;;;;6193762;23;20036;-91
2021/09/11 04:54:31;;;;;;;13.27;11.60;;;15.60;99.90;;;;;;6199929;23;20029;-89
2021/09/11 04:57:25;;;;;;;12.25;10.75;;;15.60;99.90;;;;;;6177223;23;20346;-90
2021/09/11 05:00:13;;;;;;;13.32;10.68;;;15.60;99.90;;;;;;6180155;23;20159;-92
2021/09/11 05:03:00;;;;;;;13.82;10.73;;;15.60;99.90;;;;;;6177308;23;20084;-87
2021/09/11 05:05:53;;;;;;;13.70;11.80;;;15.60;99.90;;;;;;6200247;23;20035;-91
2021/09/11 05:08:40;;;;;;;12.43;10.23;;;15.60;99.90;;;;;;6204367;23;20097;-91
2021/09/11 05:11:27;;;;;;;11.88;10.40;;;15.60;99.90;;;;;;6198797;23;20397;-92
2021/09/11 05:14:16;;;;;;;13.57;9.88;;;15.60;99.90;;;;;;6204771;23;20040;-89
2021/09/11 05:17:04;;;;;;;11.20;9.43;;;15.60;99.90;;;;;;6203812;23;20102;-90
2021/09/11 05:19:53;;;;;;;10.07;9.07;;;15.60;99.90;;;;;;6182745;23;20033;-90
2021/09/11 05:22:45;;;;;;;9.38;7.68;;;15.60;99.90;;;;;;6202335;23;20021;-89
2021/09/11 05:25:33;;;;;;;9.10;8.20;;;15.60;99.90;;;;;;6206324;23;20074;-92
2021/09/11 05:28:20;;;;;;;8.52;7.20;;;15.50;99.90;;;;;;6206936;23;20085;-91
2021/09/11 05:31:08;;;;;;;8.23;6.95;;;15.60;99.90;;;;;;6189895;23;20056;-90
2021/09/11 05:33:55;;;;;;;8.30;7.10;;;15.60;99.90;;;;;;6211797;23;20020;-92
2021/09/11 05:36:45;;;;;;;8.07;6.57;;;15.60;99.90;;;;;;6188846;23;20024;-87
2021/09/11 05:39:32;;;;;;;7.90;6.43;;;15.60;99.90;;;;;;6209994;23;20105;-89
2021/09/11 05:42:19;;;;;;;7.55;6.15;;;15.60;99.90;;;;;;6209333;23;20100;-90
2021/09/11 05:45:07;;;;;;;8.15;6.50;;;15.50;99.90;;;;;;6184013;23;20102;-91
2021/09/11 05:47:57;;;;;;;7.30;6.28;;;15.50;99.90;;;;;;6202623;23;20040;-91
2021/09/11 05:50:44;;;;;;;8.75;6.80;;;15.50;99.90;;;;;;6178921;23;20072;-88
2021/09/11 05:53:32;;;;;;;9.85;6.05;;;15.50;99.90;;;;;;6175911;23;20092;-92
2021/09/11 05:56:19;;;;;;;9.00;7.15;;;15.50;99.90;;;;;;6197091;23;20120;-91
2021/09/11 05:59:06;;;;;;;6.35;5.70;;;15.60;99.90;;;;;;6168830;23;20045;-90
2021/09/11 06:01:54;;;;;;;8.82;6.65;;;15.60;99.90;;;;;;6168504;23;20025;-90
2021/09/11 06:04:42;;;;;;;8.18;6.35;;;15.70;99.90;;;;;;6149818;23;20021;-92
2021/09/11 06:07:29;;;;;;;8.57;7.35;;;15.70;99.90;;;;;;6193368;23;20083;-89
2021/09/11 06:10:16;;;;;;;8.40;7.53;;;15.80;99.90;;;;;;6171045;23;20048;-91
2021/09/11 06:13:05;;;;;;;8.77;7.82;;;15.80;99.90;;;;;;6197862;23;20029;-91
2021/09/11 06:15:52;;;;;;;10.48;7.53;;;15.80;99.90;;;;;;6154341;23;20440;-90
2021/09/11 06:18:42;;;;;;;9.70;7.78;;;15.90;99.90;;;;;;6192665;23;20328;-90
2021/09/11 06:21:29;;;;;;;9.25;7.85;;;16.00;99.90;;;;;;6192420;23;20033;-89
2021/09/11 06:24:18;;;;;;;10.65;8.10;;;16.00;99.90;;;;;;6175240;23;20025;-91
2021/09/11 06:27:14;;;;;;;9.73;8.73;;;16.00;99.90;;;;;;6201431;23;20029;-90
2021/09/11 06:30:01;;;;;;;10.65;8.80;;;16.10;99.90;;;;;;6180245;23;20025;-90
2021/09/11 06:32:51;;;;;;;10.27;8.82;;;16.20;99.90;;;;;;6206761;23;20032;-90
2021/09/11 06:35:41;;;;;;;11.55;9.10;;;16.30;99.90;;;;;;6205321;23;20041;-91
2021/09/11 06:38:28;;;;;;;10.65;9.23;;;16.40;99.90;;;;;;6178372;23;20021;-92
2021/09/11 06:41:15;;;;;;;10.50;9.25;;;16.50;99.90;;;;;;6205681;23;20071;-89
2021/09/11 06:44:04;;;;;;;10.88;8.75;;;16.60;99.90;;;;;;6189060;23;20025;-90
2021/09/11 06:46:52;;;;;;;10.23;8.50;;;16.70;99.90;;;;;;6169514;23;20114;-91
2021/09/11 06:49:43;;;;;;;9.55;8.45;;;16.70;99.90;;;;;;6188205;23;20025;-88
2021/09/11 06:52:30;;;;;;;8.73;7.82;;;16.80;99.90;;;;;;6189639;23;20024;-92
2021/09/11 06:55:18;;;;;;;8.40;7.60;;;16.80;99.90;;;;;;6190745;23;20021;-92
2021/09/11 06:58:06;;;;;;;8.60;7.70;;;16.90;99.90;;;;;;6169094;23;20056;-92
2021/09/11 07:00:55;;;;;;;9.35;8.38;;;17.00;99.90;;;;;;6194335;23;20021;-92
2021/09/11 07:03:45;;;;;;;8.40;7.35;;;17.10;99.90;;;;;;6172180;23;20024;-90
2021/09/11 07:06:34;;;;;;;8.55;7.40;;;17.20;99.90;;;;;;6150145;23;20439;-90
2021/09/11 07:09:23;;;;;;;8.07;7.20;;;17.40;99.90;;;;;;6172352;23;20025;-92
2021/09/11 07:12:12;;;;;;;10.18;7.38;;;17.50;99.90;;;;;;6168926;23;20025;-90
2021/09/11 07:15:02;;;;;;;7.57;6.78;;;17.60;99.90;;;;;;6167921;23;20127;-92
2021/09/11 07:17:52;;;;;;;8.23;6.60;;;17.80;99.90;;;;;;6188599;23;20025;-91
2021/09/11 07:21:16;;;;;;;6.97;6.28;;;17.90;99.90;;;;;;6165187;23;20037;-92
2021/09/11 07:24:20;;;;;;;6.80;6.10;;;18.00;99.90;;;;;;6189861;23;20040;-89
2021/09/11 07:27:09;;;;;;;6.82;6.15;;;17.90;99.90;;;;;;6187175;23;20040;-92
2021/09/11 07:30:20;;;;;;;7.85;5.93;;;18.10;99.90;;;;;;6185521;23;20025;-92
2021/09/11 07:33:29;;;;;;;5.95;4.97;;;18.50;99.90;;;;;;6172399;23;20074;-93
2021/09/11 07:36:22;;;;;;;8.00;5.28;;;18.90;99.90;;;;;;6164517;23;20029;-92
2021/09/11 07:39:15;;;;;;;6.50;5.07;;;18.90;99.90;;;;;;6166045;23;20029;-91
2021/09/11 07:42:08;;;;;;;7.70;6.53;;;18.90;99.90;;;;;;6168241;23;20028;-92
2021/09/11 07:45:03;;;;;;;6.78;5.55;;;18.80;99.90;;;;;;6186680;23;20025;-92
2021/09/11 07:48:03;;;;;;;;;;;;;;;;;;;;;
2021/09/11 07:51:11;;;;;;;11.05;6.75;;;18.20;99.90;;;;;;6039055;23;20431;-90
2021/09/11 07:54:21;;;;;;;7.00;6.13;;;18.10;99.90;;;;;;6039024;23;20028;-91
2021/09/11 07:57:38;;;;;;;8.90;5.75;;;18.10;99.90;;;;;;6038457;23;20086;-92
2021/09/11 08:00:29;;;;;;;7.35;5.90;;;18.30;99.90;;;;;;6039299;23;20033;-91
2021/09/11 08:03:54;;;;;;;7.70;5.63;;;18.40;99.90;;;;;;6038520;23;20085;-92
2021/09/11 08:06:58;;;;;;;6.50;5.90;;;18.70;99.90;;;;;;6039179;23;20024;-91
2021/09/11 08:09:52;;;;;;;7.25;5.60;;;19.00;99.90;;;;;;6180128;23;20025;-92
2021/09/11 08:12:46;;;;;;;5.57;4.47;;;19.20;99.90;;;;;;6186952;23;20021;-93
2021/09/11 08:15:55;;;;;;;5.03;4.53;;;19.60;99.90;;;;;;6177847;23;20025;-92
2021/09/11 08:18:48;;;;;;;5.63;4.38;;;20.20;99.90;;;;;;6189315;23;20095;-92
2021/09/11 08:21:56;;;;;;;4.28;3.53;;;20.60;99.90;;;;;;6187156;23;20060;-91
2021/09/11 08:24:46;;;;;;;5.00;3.72;;;20.90;99.90;;;;;;6187703;23;20026;-94
2021/09/11 08:28:11;;;;;;;5.13;3.42;;;21.00;99.90;;;;;;6187991;23;20029;-90
2021/09/11 08:31:07;;;;;;;5.88;4.00;;;20.80;99.90;;;;;;6188790;23;20059;-90
2021/09/11 08:33:54;;;;;;;5.20;2.90;;;20.80;99.90;;;;;;6167254;23;20025;-91
2021/09/11 08:36:51;;;;;;;7.43;4.45;;;20.90;99.90;;;;;;6164543;23;20025;-92
2021/09/11 08:39:44;;;;;;;8.40;3.92;;;21.20;99.90;;;;;;6187597;23;20025;-91
2021/09/11 08:42:43;;;;;;;4.45;3.00;;;21.30;99.90;;;;;;6167289;23;20021;-90
2021/09/11 08:45:33;;;;;;;5.05;3.28;;;21.10;99.90;;;;;;6185566;23;20076;-91
2021/09/11 08:48:24;;;;;;;5.78;3.65;;;21.30;99.90;;;;;;6186381;23;20074;-91
2021/09/11 08:51:12;;;;;;;4.82;2.78;;;21.60;99.90;;;;;;6166390;23;20377;-90
2021/09/11 08:53:59;;;;;;;3.95;2.40;;;21.60;99.90;;;;;;6186158;23;20043;-89
2021/09/11 09:00:15;;;;;;;4.82;2.40;;;21.70;99.90;;;;;;6187660;23;20029;-94
2021/09/11 09:03:44;;;;;;;;;;;;;;;;;;;;;
2021/09/11 09:06:47;;;;;;;3.75;2.28;;;23.10;99.90;;;;;;6190828;23;20125;-92
2021/09/11 09:14:27;;;;;;;;;;;;;;;;;;;;;
2021/09/11 09:18:07;;;;;;;3.42;2.28;;;25.00;99.90;;;;;;6094814;23;20026;-92
2021/09/11 09:21:30;;;;;;;2.45;1.95;;;25.10;98.10;;;;;;6097753;23;20041;-90
2021/09/11 09:24:35;;;;;;;5.25;2.53;;;24.10;99.40;;;;;;6098060;23;20357;-92
2021/09/11 09:27:47;;;;;;;3.13;2.70;;;23.20;99.90;;;;;;6103118;23;20050;-92
2021/09/11 09:33:54;;;;;;;;;;;;;;;;;;;;;
2021/09/11 09:36:42;;;;;;;4.60;2.90;;;22.30;99.90;;;;;;6217086;23;20045;-93
2021/09/11 09:40:07;;;;;;;4.20;2.92;;;23.20;99.90;;;;;;6217793;23;20087;-94
2021/09/11 09:47:03;;;;;;;3.33;2.90;;;23.20;99.90;;;;;;6217921;23;20052;-93
2021/09/11 09:50:44;;;;;;;4.15;2.60;;;22.60;99.90;;;;;;6216783;23;20025;-92
2021/09/11 09:53:45;;;;;;;;;;;;;;;;;;;;;
2021/09/11 09:56:42;;;;;;;6.38;3.30;;;21.20;99.90;;;;;;6115388;23;20415;-93
2021/09/11 09:59:42;;;;;;;;;;;;;;;;;;;;;
2021/09/11 10:02:55;;;;;;;3.20;2.90;;;20.80;99.90;;;;;;6217538;23;20029;-92
2021/09/11 10:06:38;;;;;;;4.78;3.20;;;20.60;99.90;;;;;;6096366;23;20161;-90
2021/09/11 10:09:33;;;;;;;3.55;3.08;;;21.60;99.90;;;;;;6076557;23;20037;-92
2021/09/11 10:13:03;;;;;;;3.78;2.85;;;24.00;99.90;;;;;;6078232;23;20158;-91
2021/09/11 10:19:42;;;;;;;4.25;2.20;;;27.40;92.50;;;;;;6109216;23;20101;-92
2021/09/11 10:23:17;;;;;;;5.32;2.20;;;28.80;85.30;;;;;;6211492;22;20016;-92
2021/09/11 10:33:46;;;;;;;4.10;2.00;;;31.50;68.40;;;;;;6118273;23;20096;-92
2021/09/11 10:36:33;;;;;;;;;;;31.50;61.60;;;;;;6223671;23;20024;-91
2021/09/11 10:39:45;;;;;;;5.88;1.98;;;31.00;63.20;;;;;;6219282;22;19922;-92
2021/09/11 10:43:13;;;;;;;1.75;1.65;;;30.60;66.00;;;;;;6216059;23;20025;-92
2021/09/11 10:46:12;;;;;;;1.55;1.45;;;31.60;60.20;;;;;;6216525;23;20021;-91
2021/09/11 10:49:12;;;;;;;;;;;;;;;;;;;;;
2021/09/11 10:52:32;;;;;;;1.95;1.27;;;33.50;54.30;;;;;;6214940;23;20032;-93
2021/09/11 10:55:38;;;;;;;1.92;1.45;;;32.40;54.20;;;;;;6184618;23;20099;-92
2021/09/11 10:58:29;;;;;;;2.83;1.75;;;31.10;57.50;;;;;;6195183;23;20020;-91
2021/09/11 11:05:08;;;;;;;2.38;1.65;;;28.20;65.00;;;;;;6217207;23;20048;-91
2021/09/11 11:08:01;;;;;;;7.82;2.90;;;26.20;75.70;;;;;;6196281;23;20138;-90
2021/09/11 11:16:13;;;;;;;6.15;3.10;;;22.70;99.90;;;;;;6082290;23;20934;-93
2021/09/11 11:19:39;;;;;;;8.48;2.88;;;20.80;99.90;;;;;;5963390;24;20025;-93
2021/09/11 11:22:29;;;;;;;27.15;5.05;;;19.70;99.90;;;;;;5970960;23;20080;-89
2021/09/11 11:25:38;;;;;;;14.60;4.28;;;19.00;99.90;;;;;;6022481;23;20038;-94
2021/09/11 11:29:09;;;;;;;15.98;3.80;;;18.40;99.90;;;;;;6068952;23;20431;-91
2021/09/11 11:31:59;;;;;;;12.50;4.20;;;17.90;99.90;;;;;;6078063;23;20046;-90
2021/09/11 11:35:08;;;;;;;8.60;4.53;;;17.60;99.90;;;;;;6068433;23;20026;-91
2021/09/11 11:38:16;;;;;;;7.78;4.50;;;17.50;99.90;;;;;;6067162;23;20062;-93
2021/09/11 11:41:12;;;;;;;13.95;5.53;;;17.40;99.90;;;;;;6066981;23;20101;-91
2021/09/11 11:44:03;;;;;;;9.40;4.93;;;17.40;99.90;;;;;;6068381;23;20103;-94
2021/09/11 11:47:02;;;;;;;11.75;5.45;;;17.30;99.90;;;;;;6050637;23;20023;-89
2021/09/11 11:50:39;;;;;;;8.05;5.32;;;17.30;99.90;;;;;;6178971;23;20020;-92
2021/09/11 11:53:41;;;;;;;;;;;;;;;;;;;;;
2021/09/11 11:57:47;;;;;;;;;;;;;;;;;;;;;
2021/09/11 12:00:57;;;;;;;13.82;7.15;;;17.50;99.90;;;;;;6068798;23;20022;-91
2021/09/11 12:03:51;;;;;;;12.27;7.28;;;17.70;99.90;;;;;;6069898;23;20026;-91
2021/09/11 12:06:48;;;;;;;9.48;7.30;;;18.00;99.90;;;;;;6066981;23;20027;-92
2021/09/11 12:09:50;;;;;;;10.18;7.15;;;18.40;99.90;;;;;;6066706;23;20030;-91
2021/09/11 12:12:57;;;;;;;8.43;5.93;;;19.10;99.90;;;;;;6064447;23;20031;-91
2021/09/11 12:15:44;;;;;;;7.85;5.07;;;19.70;99.90;;;;;;6065129;23;20434;-90
2021/09/11 12:18:45;;;;;;;8.13;5.25;;;20.00;99.90;;;;;;6148225;23;20035;-91
2021/09/11 12:21:37;;;;;;;7.18;4.05;;;20.90;99.90;;;;;;6215518;23;20042;-92
2021/09/11 12:24:33;;;;;;;3.47;3.17;;;21.80;99.90;;;;;;6214363;23;20048;-91
2021/09/11 12:27:29;;;;;;;6.30;3.22;;;22.30;99.90;;;;;;6214656;23;20420;-92
2021/09/11 12:30:16;;;;;;;3.90;3.47;;;22.20;99.90;;;;;;6173843;23;20039;-91
2021/09/11 12:33:10;;;;;;;4.25;2.45;;;22.90;99.90;;;;;;6194784;23;20029;-92
2021/09/11 12:35:58;;;;;;;4.50;3.13;;;24.70;99.90;;;;;;6194555;23;20033;-93
2021/09/11 12:38:51;;;;;;;3.05;2.20;;;26.80;99.90;;;;;;6194207;23;20025;-91
2021/09/11 12:41:39;;;;;;;2.00;1.80;;;28.40;99.90;;;;;;6217820;23;20039;-90
2021/09/11 12:44:30;;;;;;;4.05;1.88;;;28.40;99.90;;;;;;6217008;23;20025;-92
2021/09/11 12:47:18;;;;;;;3.00;1.80;;;28.70;99.90;;;;;;6228791;23;20034;-93
2021/09/11 12:50:08;;;;;;;2.15;1.40;;;29.30;97.90;;;;;;6209041;23;20044;-91
2021/09/11 12:53:33;;;;;;;3.05;1.40;;;29.50;93.80;;;;;;6111996;23;20081;-93
2021/09/11 12:56:25;;;;;;;2.45;1.38;;;29.80;91.20;;;;;;6082964;23;20087;-92
2021/09/11 12:59:42;;;;;;;1.70;1.58;;;30.00;90.00;;;;;;6099730;23;20100;-93
2021/09/11 13:02:42;;;;;;;1.52;1.33;;;28.60;90.20;;;;;;6083783;23;20022;-93
2021/09/11 13:05:50;;;;;;;2.40;1.38;;;27.40;92.80;;;;;;6082934;23;20109;-93
2021/09/11 13:09:02;;;;;;;2.38;1.25;;;27.50;94.90;;;;;;6080814;23;20034;-93
2021/09/11 13:12:30;;;;;;;;;;;;;;;;;;;;;
2021/09/11 13:15:30;;;;;;;1.85;1.30;;;30.10;85.70;;;;;;6217054;23;20447;-92
2021/09/11 13:18:57;;;;;;;3.40;1.30;;;30.50;81.20;;;;;;6222029;23;20090;-93
2021/09/11 13:22:53;;;;;;;1.95;1.10;;;30.00;77.70;;;;;;6225505;23;20276;-93
2021/09/11 13:29:48;;;;;;;2.83;1.55;;;31.60;74.50;;;;;;5886488;24;20029;-93
2021/09/11 14:17:40;;;;;;;;;;;;;;;;;;;;;
2021/09/11 14:25:51;;;;;;;2.47;1.30;;;27.40;78.60;;;;;;6070654;23;20022;-92
2021/09/11 14:29:52;;;;;;;;;;;;;;;;;;;;;
2021/09/11 15:09:48;;;;;;;3.10;2.17;;;22.30;98.50;;;;;;5828287;24;20099;-91
2021/09/11 15:16:39;;;;;;;3.53;2.33;;;22.20;99.90;;;;;;5783137;24;20046;-92
2021/09/11 15:19:46;;;;;;;4.07;2.58;;;22.30;99.90;;;;;;5774331;24;20018;-92
2021/09/11 15:22:46;;;;;;;5.10;3.05;;;22.20;99.90;;;;;;5816188;24;20034;-91
2021/09/11 15:25:41;;;;;;;6.72;3.00;;;21.90;99.90;;;;;;5819112;24;20019;-91
2021/09/11 15:33:02;;;;;;;3.65;3.30;;;21.30;99.90;;;;;;5853100;24;20137;-90
2021/09/11 15:35:51;;;;;;;5.28;2.72;;;20.90;99.90;;;;;;5854283;24;20033;-91
2021/09/11 15:38:39;;;;;;;2.60;2.20;;;20.70;99.90;;;;;;5852152;24;20045;-92
2021/09/11 15:41:38;;;;;;;2.60;2.10;;;20.60;99.90;;;;;;5852722;24;20041;-93
2021/09/11 15:44:26;;;;;;;3.47;2.22;;;20.40;99.90;;;;;;5851977;24;20316;-91
2021/09/11 15:47:32;;;;;;;3.42;2.30;;;20.30;99.90;;;;;;5970180;24;20455;-91
2021/09/11 15:50:22;;;;;;;3.38;2.13;;;20.40;99.90;;;;;;5969355;23;20100;-91
2021/09/11 15:53:19;;;;;;;2.97;2.30;;;20.90;99.90;;;;;;5987816;23;20424;-90
2021/09/11 15:56:23;;;;;;;2.60;2.33;;;21.20;99.90;;;;;;5977139;24;20083;-92
2021/09/11 15:59:13;;;;;;;2.45;2.08;;;21.10;99.90;;;;;;5996187;24;20035;-92
2021/09/11 16:02:02;;;;;;;3.25;2.15;;;20.90;99.90;;;;;;6072018;23;20465;-92
2021/09/11 16:04:49;;;;;;;3.72;2.50;;;20.70;99.90;;;;;;6126713;23;20029;-91
2021/09/11 16:07:42;;;;;;;5.10;2.50;;;20.60;99.90;;;;;;6138933;23;20084;-92
2021/09/11 16:11:04;;;;;;;;;;;;;;;;;;;;;
2021/09/11 16:14:58;;;;;;;;;;;;;;;;;;;;;
2021/09/11 16:26:32;;;;;;;;;;;;;;;;;;;;;
2021/09/11 16:29:54;;;;;;;3.72;2.72;;;19.70;99.90;;;;;;6082672;23;20057;-92
2021/09/11 16:33:06;;;;;;;3.25;2.50;;;19.50;99.90;;;;;;6066969;23;20029;-91
2021/09/11 16:36:00;;;;;;;3.95;2.53;;;19.50;99.90;;;;;;6067172;23;20030;-91
2021/09/11 16:38:54;;;;;;;2.80;2.58;;;19.30;99.90;;;;;;6031324;23;20118;-91
2021/09/11 16:41:56;;;;;;;3.10;2.80;;;19.30;99.90;;;;;;6049489;23;20402;-92
2021/09/11 16:45:06;;;;;;;5.47;3.58;;;19.20;99.90;;;;;;6049412;23;20355;-93
2021/09/11 16:48:04;;;;;;;4.40;3.25;;;19.10;99.90;;;;;;6049250;23;20033;-91
2021/09/11 16:51:11;;;;;;;4.22;3.47;;;18.90;99.90;;;;;;6125710;23;20029;-90
2021/09/11 16:54:02;;;;;;;5.65;2.90;;;18.90;99.90;;;;;;6105730;23;20026;-93
2021/09/11 16:57:32;;;;;;;4.82;3.70;;;18.80;99.90;;;;;;6036636;23;20055;-92
2021/09/11 17:00:51;;;;;;;5.53;4.03;;;18.70;99.90;;;;;;6037108;23;20042;-93
2021/09/11 17:04:47;;;;;;;6.90;3.05;;;18.70;99.90;;;;;;6017389;23;20027;-91
2021/09/11 17:08:08;;;;;;;;;;;;;;;;;;;;;
2021/09/11 17:12:14;;;;;;;;;;;;;;;;;;;;;
2021/09/11 17:15:29;;;;;;;3.95;3.30;;;18.60;99.90;;;;;;6059268;23;20037;-92
2021/09/11 17:18:48;;;;;;;5.00;4.28;;;18.50;99.90;;;;;;6047841;23;20027;-92
2021/09/11 17:22:17;;;;;;;7.25;4.90;;;18.50;99.90;;;;;;6057750;23;20027;-93
2021/09/11 17:25:07;;;;;;;5.95;3.97;;;18.50;99.90;;;;;;6035869;23;20106;-90
2021/09/11 17:28:39;;;;;;;4.70;3.65;;;18.50;99.90;;;;;;6053144;23;20664;-92
2021/09/11 17:31:30;;;;;;;6.30;3.78;;;18.40;99.90;;;;;;6046083;23;20207;-91
2021/09/11 17:35:19;;;;;;;;;;;;;;;;;;;;;
2021/09/11 17:39:19;;;;;;;;;;;;;;;;;;;;;
2021/09/11 17:42:41;;;;;;;8.38;6.05;;;18.30;99.90;;;;;;6124368;23;20029;-93
2021/09/11 17:45:40;;;;;;;10.35;5.78;;;18.20;99.90;;;;;;6128751;23;20037;-93
2021/09/11 17:48:50;;;;;;;6.72;4.50;;;18.10;99.90;;;;;;6131909;23;20029;-91
2021/09/11 17:51:58;;;;;;;7.95;4.18;;;18.00;99.90;;;;;;6126968;23;20040;-93
2021/09/11 17:55:29;;;;;;;6.43;4.70;;;18.00;99.90;;;;;;6154128;23;20053;-92
2021/09/11 17:59:10;;;;;;;;;;;;;;;;;;;;;
2021/09/11 18:02:52;;;;;;;;;;;;;;;;;;;;;
2021/09/11 18:06:00;;;;;;;6.38;4.50;;;17.60;99.90;;;;;;5980070;24;20032;-91
2021/09/11 18:13:01;;;;;;;6.63;5.03;;;17.50;99.90;;;;;;5980643;24;20080;-91
2021/09/11 18:16:53;;;;;;;;;;;;;;;;;;;;;
2021/09/11 18:53:12;;;;;;;;;;;;;;;;;;;;;